sensor_id;sensor_type;location;lat;lon;timestamp;P1;durP1;ratioP1;P2;durP2;ratioP2
19151;SDS011;9708;53.114;9.388;2023-08-20T00:01:34;7.55;;;4.43;;
19151;SDS011;9708;53.114;9.388;2023-08-20T00:04:01;6.70;;;4.38;;
19151;SDS011;9708;53.114;9.388;2023-08-20T00:06:29;6.93;;;4.82;;
19151;SDS011;9708;53.114;9.388;2023-08-20T00:08:57;8.77;;;4.85;;
19151;SDS011;9708;53.114;9.388;2023-08-20T00:11:25;7.55;;;4.47;;
19151;SDS011;9708;53.114;9.388;2023-08-20T00:13:52;9.35;;;4.53;;
19151;SDS011;9708;53.114;9.388;2023-08-20T00:16:19;6.10;;;4.35;;
19151;SDS011;9708;53.114;9.388;2023-08-20T00:18:46;11.77;;;4.53;;
19151;SDS011;9708;53.114;9.388;2023-08-20T00:21:13;8.35;;;5.03;;
19151;SDS011;9708;53.114;9.388;2023-08-20T00:23:41;9.57;;;4.97;;
19151;SDS011;9708;53.114;9.388;2023-08-20T00:26:08;9.63;;;6.00;;
19151;SDS011;9708;53.114;9.388;2023-08-20T00:28:36;7.22;;;4.85;;
19151;SDS011;9708;53.114;9.388;2023-08-20T00:31:03;8.88;;;5.30;;
19151;SDS011;9708;53.114;9.388;2023-08-20T00:33:30;10.55;;;5.43;;
19151;SDS011;9708;53.114;9.388;2023-08-20T00:35:57;7.53;;;4.63;;
19151;SDS011;9708;53.114;9.388;2023-08-20T00:38:24;7.75;;;4.90;;
19151;SDS011;9708;53.114;9.388;2023-08-20T00:40:51;7.18;;;4.32;;
19151;SDS011;9708;53.114;9.388;2023-08-20T00:43:17;9.30;;;5.05;;
19151;SDS011;9708;53.114;9.388;2023-08-20T00:45:46;11.82;;;5.65;;
19151;SDS011;9708;53.114;9.388;2023-08-20T00:48:12;8.75;;;5.53;;
19151;SDS011;9708;53.114;9.388;2023-08-20T00:50:40;6.93;;;4.88;;
19151;SDS011;9708;53.114;9.388;2023-08-20T00:53:07;17.95;;;5.22;;
19151;SDS011;9708;53.114;9.388;2023-08-20T00:55:35;7.97;;;4.95;;
19151;SDS011;9708;53.114;9.388;2023-08-20T00:58:03;7.07;;;4.47;;
19151;SDS011;9708;53.114;9.388;2023-08-20T01:00:30;10.30;;;4.88;;
19151;SDS011;9708;53.114;9.388;2023-08-20T01:02:59;8.32;;;4.45;;
19151;SDS011;9708;53.114;9.388;2023-08-20T01:05:26;7.53;;;5.50;;
19151;SDS011;9708;53.114;9.388;2023-08-20T01:07:59;8.95;;;4.32;;
19151;SDS011;9708;53.114;9.388;2023-08-20T01:10:34;6.72;;;4.35;;
19151;SDS011;9708;53.114;9.388;2023-08-20T01:13:09;6.30;;;3.97;;
19151;SDS011;9708;53.114;9.388;2023-08-20T01:15:36;5.68;;;3.88;;
19151;SDS011;9708;53.114;9.388;2023-08-20T01:18:05;8.38;;;4.22;;
19151;SDS011;9708;53.114;9.388;2023-08-20T01:20:33;7.35;;;4.60;;
19151;SDS011;9708;53.114;9.388;2023-08-20T01:23:11;11.55;;;4.82;;
19151;SDS011;9708;53.114;9.388;2023-08-20T01:26:13;10.90;;;4.95;;
19151;SDS011;9708;53.114;9.388;2023-08-20T01:28:52;8.07;;;3.33;;
19151;SDS011;9708;53.114;9.388;2023-08-20T01:31:20;7.20;;;4.55;;
19151;SDS011;9708;53.114;9.388;2023-08-20T01:33:48;5.07;;;3.67;;
19151;SDS011;9708;53.114;9.388;2023-08-20T01:36:16;7.75;;;4.65;;
19151;SDS011;9708;53.114;9.388;2023-08-20T01:38:43;6.88;;;4.50;;
19151;SDS011;9708;53.114;9.388;2023-08-20T01:41:10;6.40;;;4.68;;
19151;SDS011;9708;53.114;9.388;2023-08-20T01:43:37;6.75;;;3.70;;
19151;SDS011;9708;53.114;9.388;2023-08-20T01:46:05;10.05;;;3.75;;
19151;SDS011;9708;53.114;9.388;2023-08-20T01:48:34;6.47;;;4.38;;
19151;SDS011;9708;53.114;9.388;2023-08-20T01:51:01;7.55;;;4.18;;
19151;SDS011;9708;53.114;9.388;2023-08-20T01:53:27;9.55;;;4.95;;
19151;SDS011;9708;53.114;9.388;2023-08-20T01:55:54;5.45;;;3.80;;
19151;SDS011;9708;53.114;9.388;2023-08-20T01:58:21;6.90;;;4.13;;
19151;SDS011;9708;53.114;9.388;2023-08-20T02:00:48;8.00;;;4.35;;
19151;SDS011;9708;53.114;9.388;2023-08-20T02:03:16;13.05;;;4.25;;
19151;SDS011;9708;53.114;9.388;2023-08-20T02:05:43;6.55;;;3.50;;
19151;SDS011;9708;53.114;9.388;2023-08-20T02:08:09;6.30;;;4.10;;
19151;SDS011;9708;53.114;9.388;2023-08-20T02:10:36;7.72;;;4.47;;
19151;SDS011;9708;53.114;9.388;2023-08-20T02:13:03;10.27;;;4.47;;
19151;SDS011;9708;53.114;9.388;2023-08-20T02:15:30;7.55;;;3.60;;
19151;SDS011;9708;53.114;9.388;2023-08-20T02:17:57;5.35;;;4.03;;
19151;SDS011;9708;53.114;9.388;2023-08-20T02:20:25;6.70;;;3.63;;
19151;SDS011;9708;53.114;9.388;2023-08-20T02:22:53;8.85;;;4.35;;
19151;SDS011;9708;53.114;9.388;2023-08-20T02:25:20;4.40;;;3.55;;
19151;SDS011;9708;53.114;9.388;2023-08-20T02:27:46;6.28;;;3.92;;
19151;SDS011;9708;53.114;9.388;2023-08-20T02:30:13;10.02;;;4.85;;
19151;SDS011;9708;53.114;9.388;2023-08-20T02:32:40;5.30;;;3.58;;
19151;SDS011;9708;53.114;9.388;2023-08-20T02:35:07;6.03;;;3.72;;
19151;SDS011;9708;53.114;9.388;2023-08-20T02:37:36;6.03;;;3.90;;
19151;SDS011;9708;53.114;9.388;2023-08-20T02:40:03;4.05;;;3.65;;
19151;SDS011;9708;53.114;9.388;2023-08-20T02:42:31;7.80;;;4.10;;
19151;SDS011;9708;53.114;9.388;2023-08-20T02:44:57;11.15;;;4.88;;
19151;SDS011;9708;53.114;9.388;2023-08-20T02:47:24;5.88;;;3.88;;
19151;SDS011;9708;53.114;9.388;2023-08-20T02:49:51;6.78;;;4.53;;
19151;SDS011;9708;53.114;9.388;2023-08-20T02:52:18;6.57;;;4.05;;
19151;SDS011;9708;53.114;9.388;2023-08-20T02:54:47;8.02;;;4.25;;
19151;SDS011;9708;53.114;9.388;2023-08-20T02:57:14;6.18;;;4.57;;
19151;SDS011;9708;53.114;9.388;2023-08-20T02:59:40;5.95;;;4.07;;
19151;SDS011;9708;53.114;9.388;2023-08-20T03:02:07;5.65;;;3.60;;
19151;SDS011;9708;53.114;9.388;2023-08-20T03:04:34;8.38;;;3.72;;
19151;SDS011;9708;53.114;9.388;2023-08-20T03:07:01;5.85;;;3.90;;
19151;SDS011;9708;53.114;9.388;2023-08-20T03:09:27;6.60;;;4.38;;
19151;SDS011;9708;53.114;9.388;2023-08-20T03:11:56;6.63;;;5.00;;
19151;SDS011;9708;53.114;9.388;2023-08-20T03:14:22;6.20;;;4.15;;
19151;SDS011;9708;53.114;9.388;2023-08-20T03:16:49;7.65;;;4.65;;
19151;SDS011;9708;53.114;9.388;2023-08-20T03:19:16;5.20;;;3.28;;
19151;SDS011;9708;53.114;9.388;2023-08-20T03:21:44;7.13;;;4.32;;
19151;SDS011;9708;53.114;9.388;2023-08-20T03:24:10;10.68;;;4.60;;
19151;SDS011;9708;53.114;9.388;2023-08-20T03:26:37;13.30;;;4.60;;
19151;SDS011;9708;53.114;9.388;2023-08-20T03:29:05;5.10;;;3.50;;
19151;SDS011;9708;53.114;9.388;2023-08-20T03:31:32;10.27;;;4.57;;
19151;SDS011;9708;53.114;9.388;2023-08-20T03:33:59;12.93;;;4.93;;
19151;SDS011;9708;53.114;9.388;2023-08-20T03:36:25;15.57;;;4.28;;
19151;SDS011;9708;53.114;9.388;2023-08-20T03:38:52;8.68;;;4.35;;
19151;SDS011;9708;53.114;9.388;2023-08-20T03:41:19;12.38;;;4.32;;
19151;SDS011;9708;53.114;9.388;2023-08-20T03:43:46;7.43;;;4.18;;
19151;SDS011;9708;53.114;9.388;2023-08-20T03:46:14;9.80;;;4.95;;
19151;SDS011;9708;53.114;9.388;2023-08-20T03:48:41;7.13;;;4.75;;
19151;SDS011;9708;53.114;9.388;2023-08-20T03:51:08;9.68;;;5.15;;
19151;SDS011;9708;53.114;9.388;2023-08-20T03:53:35;9.20;;;5.18;;
19151;SDS011;9708;53.114;9.388;2023-08-20T03:56:01;11.35;;;5.03;;
19151;SDS011;9708;53.114;9.388;2023-08-20T03:58:28;10.55;;;5.13;;
19151;SDS011;9708;53.114;9.388;2023-08-20T04:00:55;7.55;;;4.50;;
19151;SDS011;9708;53.114;9.388;2023-08-20T04:03:23;7.28;;;5.28;;
19151;SDS011;9708;53.114;9.388;2023-08-20T04:05:50;13.52;;;4.68;;
19151;SDS011;9708;53.114;9.388;2023-08-20T04:08:17;10.40;;;4.53;;
19151;SDS011;9708;53.114;9.388;2023-08-20T04:10:43;9.85;;;5.50;;
19151;SDS011;9708;53.114;9.388;2023-08-20T04:13:10;13.10;;;5.40;;
19151;SDS011;9708;53.114;9.388;2023-08-20T04:15:38;11.40;;;4.75;;
19151;SDS011;9708;53.114;9.388;2023-08-20T04:18:05;13.63;;;5.25;;
19151;SDS011;9708;53.114;9.388;2023-08-20T04:20:34;12.88;;;5.88;;
19151;SDS011;9708;53.114;9.388;2023-08-20T04:23:00;6.00;;;3.92;;
19151;SDS011;9708;53.114;9.388;2023-08-20T04:25:27;7.07;;;4.38;;
19151;SDS011;9708;53.114;9.388;2023-08-20T04:27:54;9.25;;;5.28;;
19151;SDS011;9708;53.114;9.388;2023-08-20T04:30:21;10.15;;;5.22;;
19151;SDS011;9708;53.114;9.388;2023-08-20T04:32:47;7.78;;;4.57;;
19151;SDS011;9708;53.114;9.388;2023-08-20T04:35:14;7.50;;;4.35;;
19151;SDS011;9708;53.114;9.388;2023-08-20T04:37:42;7.53;;;4.95;;
19151;SDS011;9708;53.114;9.388;2023-08-20T04:40:09;9.18;;;5.22;;
19151;SDS011;9708;53.114;9.388;2023-08-20T04:42:37;8.43;;;3.97;;
19151;SDS011;9708;53.114;9.388;2023-08-20T04:45:04;10.73;;;6.32;;
19151;SDS011;9708;53.114;9.388;2023-08-20T04:47:32;10.90;;;5.28;;
19151;SDS011;9708;53.114;9.388;2023-08-20T04:49:59;8.35;;;4.78;;
19151;SDS011;9708;53.114;9.388;2023-08-20T04:52:26;7.13;;;4.60;;
19151;SDS011;9708;53.114;9.388;2023-08-20T04:54:54;5.45;;;4.55;;
19151;SDS011;9708;53.114;9.388;2023-08-20T04:57:21;4.38;;;3.72;;
19151;SDS011;9708;53.114;9.388;2023-08-20T04:59:48;6.25;;;4.03;;
19151;SDS011;9708;53.114;9.388;2023-08-20T05:02:15;10.82;;;4.70;;
19151;SDS011;9708;53.114;9.388;2023-08-20T05:04:41;8.45;;;4.10;;
19151;SDS011;9708;53.114;9.388;2023-08-20T05:07:08;9.90;;;4.00;;
19151;SDS011;9708;53.114;9.388;2023-08-20T05:09:35;6.28;;;4.15;;
19151;SDS011;9708;53.114;9.388;2023-08-20T05:12:03;6.57;;;5.22;;
19151;SDS011;9708;53.114;9.388;2023-08-20T05:14:30;6.10;;;4.13;;
19151;SDS011;9708;53.114;9.388;2023-08-20T05:16:57;9.25;;;4.25;;
19151;SDS011;9708;53.114;9.388;2023-08-20T05:19:24;3.95;;;3.22;;
19151;SDS011;9708;53.114;9.388;2023-08-20T05:21:51;10.32;;;4.78;;
19151;SDS011;9708;53.114;9.388;2023-08-20T05:24:20;5.70;;;4.13;;
19151;SDS011;9708;53.114;9.388;2023-08-20T05:26:49;5.10;;;3.90;;
19151;SDS011;9708;53.114;9.388;2023-08-20T05:29:31;5.60;;;4.50;;
19151;SDS011;9708;53.114;9.388;2023-08-20T05:31:58;8.10;;;4.15;;
19151;SDS011;9708;53.114;9.388;2023-08-20T05:34:25;7.40;;;4.82;;
19151;SDS011;9708;53.114;9.388;2023-08-20T05:36:52;6.45;;;4.32;;
19151;SDS011;9708;53.114;9.388;2023-08-20T05:39:18;10.75;;;6.07;;
19151;SDS011;9708;53.114;9.388;2023-08-20T05:41:45;9.45;;;4.50;;
19151;SDS011;9708;53.114;9.388;2023-08-20T05:44:13;7.15;;;4.93;;
19151;SDS011;9708;53.114;9.388;2023-08-20T05:46:40;5.63;;;3.88;;
19151;SDS011;9708;53.114;9.388;2023-08-20T05:49:07;11.48;;;5.57;;
19151;SDS011;9708;53.114;9.388;2023-08-20T05:51:34;6.78;;;4.13;;
19151;SDS011;9708;53.114;9.388;2023-08-20T05:54:00;5.28;;;4.07;;
19151;SDS011;9708;53.114;9.388;2023-08-20T05:56:27;6.85;;;4.30;;
19151;SDS011;9708;53.114;9.388;2023-08-20T05:58:54;8.82;;;4.95;;
19151;SDS011;9708;53.114;9.388;2023-08-20T06:01:22;6.32;;;4.45;;
19151;SDS011;9708;53.114;9.388;2023-08-20T06:03:49;7.00;;;4.40;;
19151;SDS011;9708;53.114;9.388;2023-08-20T06:06:16;7.57;;;4.85;;
19151;SDS011;9708;53.114;9.388;2023-08-20T06:08:42;6.25;;;4.47;;
19151;SDS011;9708;53.114;9.388;2023-08-20T06:11:09;6.63;;;4.50;;
19151;SDS011;9708;53.114;9.388;2023-08-20T06:13:36;7.03;;;4.57;;
19151;SDS011;9708;53.114;9.388;2023-08-20T06:16:03;6.20;;;4.50;;
19151;SDS011;9708;53.114;9.388;2023-08-20T06:18:31;6.07;;;4.00;;
19151;SDS011;9708;53.114;9.388;2023-08-20T06:20:58;5.30;;;4.15;;
19151;SDS011;9708;53.114;9.388;2023-08-20T06:23:25;4.57;;;3.65;;
19151;SDS011;9708;53.114;9.388;2023-08-20T06:25:51;3.92;;;3.30;;
19151;SDS011;9708;53.114;9.388;2023-08-20T06:28:18;5.53;;;3.65;;
19151;SDS011;9708;53.114;9.388;2023-08-20T06:30:45;4.43;;;3.42;;
19151;SDS011;9708;53.114;9.388;2023-08-20T06:33:12;3.63;;;3.10;;
19151;SDS011;9708;53.114;9.388;2023-08-20T06:35:40;4.78;;;3.50;;
19151;SDS011;9708;53.114;9.388;2023-08-20T06:38:07;3.75;;;2.95;;
19151;SDS011;9708;53.114;9.388;2023-08-20T06:40:34;3.13;;;2.70;;
19151;SDS011;9708;53.114;9.388;2023-08-20T06:43:01;2.88;;;2.40;;
19151;SDS011;9708;53.114;9.388;2023-08-20T06:45:28;4.35;;;3.15;;
19151;SDS011;9708;53.114;9.388;2023-08-20T06:47:55;3.80;;;3.20;;
19151;SDS011;9708;53.114;9.388;2023-08-20T06:50:23;4.68;;;3.33;;
19151;SDS011;9708;53.114;9.388;2023-08-20T06:52:51;5.75;;;2.80;;
19151;SDS011;9708;53.114;9.388;2023-08-20T06:55:18;4.45;;;3.00;;
19151;SDS011;9708;53.114;9.388;2023-08-20T06:57:45;5.05;;;3.42;;
19151;SDS011;9708;53.114;9.388;2023-08-20T07:00:11;2.63;;;2.42;;
19151;SDS011;9708;53.114;9.388;2023-08-20T07:02:38;5.10;;;2.88;;
19151;SDS011;9708;53.114;9.388;2023-08-20T07:05:05;4.32;;;2.67;;
19151;SDS011;9708;53.114;9.388;2023-08-20T07:07:34;3.80;;;2.30;;
19151;SDS011;9708;53.114;9.388;2023-08-20T07:10:02;2.85;;;2.53;;
19151;SDS011;9708;53.114;9.388;2023-08-20T07:12:29;4.80;;;2.40;;
19151;SDS011;9708;53.114;9.388;2023-08-20T07:14:56;2.50;;;2.30;;
19151;SDS011;9708;53.114;9.388;2023-08-20T07:17:23;2.83;;;2.05;;
19151;SDS011;9708;53.114;9.388;2023-08-20T07:19:50;3.95;;;2.58;;
19151;SDS011;9708;53.114;9.388;2023-08-20T07:22:16;3.42;;;2.17;;
19151;SDS011;9708;53.114;9.388;2023-08-20T07:24:43;3.38;;;2.10;;
19151;SDS011;9708;53.114;9.388;2023-08-20T07:27:11;7.90;;;2.30;;
19151;SDS011;9708;53.114;9.388;2023-08-20T07:29:38;3.03;;;2.20;;
19151;SDS011;9708;53.114;9.388;2023-08-20T07:32:05;3.90;;;2.00;;
19151;SDS011;9708;53.114;9.388;2023-08-20T07:34:32;1.75;;;1.63;;
19151;SDS011;9708;53.114;9.388;2023-08-20T07:36:59;2.60;;;1.67;;
19151;SDS011;9708;53.114;9.388;2023-08-20T07:39:26;4.55;;;2.00;;
19151;SDS011;9708;53.114;9.388;2023-08-20T07:41:53;2.47;;;1.52;;
19151;SDS011;9708;53.114;9.388;2023-08-20T07:44:21;3.28;;;1.50;;
19151;SDS011;9708;53.114;9.388;2023-08-20T07:46:48;3.25;;;1.65;;
19151;SDS011;9708;53.114;9.388;2023-08-20T07:49:14;2.60;;;2.08;;
19151;SDS011;9708;53.114;9.388;2023-08-20T07:51:41;3.55;;;1.35;;
19151;SDS011;9708;53.114;9.388;2023-08-20T07:54:08;4.93;;;1.40;;
19151;SDS011;9708;53.114;9.388;2023-08-20T07:56:35;3.90;;;0.98;;
19151;SDS011;9708;53.114;9.388;2023-08-20T07:59:01;5.38;;;2.88;;
19151;SDS011;9708;53.114;9.388;2023-08-20T08:01:30;3.53;;;1.20;;
19151;SDS011;9708;53.114;9.388;2023-08-20T08:03:56;1.65;;;1.27;;
19151;SDS011;9708;53.114;9.388;2023-08-20T08:06:23;5.30;;;2.00;;
19151;SDS011;9708;53.114;9.388;2023-08-20T08:08:50;1.38;;;0.75;;
19151;SDS011;9708;53.114;9.388;2023-08-20T08:11:17;3.20;;;1.10;;
19151;SDS011;9708;53.114;9.388;2023-08-20T08:13:43;1.17;;;0.95;;
19151;SDS011;9708;53.114;9.388;2023-08-20T08:16:10;4.18;;;1.25;;
19151;SDS011;9708;53.114;9.388;2023-08-20T08:18:38;1.35;;;1.17;;
19151;SDS011;9708;53.114;9.388;2023-08-20T08:21:05;1.02;;;0.90;;
19151;SDS011;9708;53.114;9.388;2023-08-20T08:23:32;2.70;;;1.65;;
19151;SDS011;9708;53.114;9.388;2023-08-20T08:25:58;1.52;;;1.15;;
19151;SDS011;9708;53.114;9.388;2023-08-20T08:28:25;2.47;;;1.10;;
19151;SDS011;9708;53.114;9.388;2023-08-20T08:30:52;1.23;;;0.90;;
19151;SDS011;9708;53.114;9.388;2023-08-20T08:33:19;1.77;;;1.08;;
19151;SDS011;9708;53.114;9.388;2023-08-20T08:35:47;2.33;;;1.05;;
19151;SDS011;9708;53.114;9.388;2023-08-20T08:38:13;1.73;;;1.35;;
19151;SDS011;9708;53.114;9.388;2023-08-20T08:40:40;2.00;;;1.20;;
19151;SDS011;9708;53.114;9.388;2023-08-20T08:43:08;1.50;;;0.95;;
19151;SDS011;9708;53.114;9.388;2023-08-20T08:45:41;2.50;;;0.90;;
19151;SDS011;9708;53.114;9.388;2023-08-20T08:48:11;3.53;;;1.52;;
19151;SDS011;9708;53.114;9.388;2023-08-20T08:50:38;1.98;;;1.20;;
19151;SDS011;9708;53.114;9.388;2023-08-20T08:53:07;1.38;;;1.27;;
19151;SDS011;9708;53.114;9.388;2023-08-20T08:55:34;4.72;;;2.78;;
19151;SDS011;9708;53.114;9.388;2023-08-20T08:58:02;2.17;;;1.27;;
19151;SDS011;9708;53.114;9.388;2023-08-20T09:00:29;1.85;;;0.98;;
19151;SDS011;9708;53.114;9.388;2023-08-20T09:02:57;2.45;;;1.23;;
19151;SDS011;9708;53.114;9.388;2023-08-20T09:05:24;1.77;;;1.17;;
19151;SDS011;9708;53.114;9.388;2023-08-20T09:07:54;3.88;;;1.40;;
19151;SDS011;9708;53.114;9.388;2023-08-20T09:10:25;1.42;;;1.15;;
19151;SDS011;9708;53.114;9.388;2023-08-20T09:12:54;3.05;;;1.20;;
19151;SDS011;9708;53.114;9.388;2023-08-20T09:15:22;5.28;;;1.55;;
19151;SDS011;9708;53.114;9.388;2023-08-20T09:17:59;4.25;;;1.67;;
19151;SDS011;9708;53.114;9.388;2023-08-20T09:20:33;3.05;;;1.27;;
19151;SDS011;9708;53.114;9.388;2023-08-20T09:23:00;4.70;;;1.55;;
19151;SDS011;9708;53.114;9.388;2023-08-20T09:25:29;8.98;;;2.72;;
19151;SDS011;9708;53.114;9.388;2023-08-20T09:27:56;2.45;;;1.30;;
19151;SDS011;9708;53.114;9.388;2023-08-20T09:30:23;2.45;;;1.30;;
19151;SDS011;9708;53.114;9.388;2023-08-20T09:33:02;2.28;;;1.33;;
19151;SDS011;9708;53.114;9.388;2023-08-20T09:35:30;2.50;;;1.35;;
19151;SDS011;9708;53.114;9.388;2023-08-20T09:38:00;2.08;;;1.30;;
19151;SDS011;9708;53.114;9.388;2023-08-20T09:40:30;3.38;;;1.40;;
19151;SDS011;9708;53.114;9.388;2023-08-20T09:42:57;2.88;;;1.55;;
19151;SDS011;9708;53.114;9.388;2023-08-20T09:45:26;5.47;;;1.90;;
19151;SDS011;9708;53.114;9.388;2023-08-20T09:47:55;1.90;;;1.30;;
19151;SDS011;9708;53.114;9.388;2023-08-20T09:50:24;2.08;;;1.40;;
19151;SDS011;9708;53.114;9.388;2023-08-20T09:52:55;2.13;;;1.33;;
19151;SDS011;9708;53.114;9.388;2023-08-20T09:55:27;1.35;;;1.10;;
19151;SDS011;9708;53.114;9.388;2023-08-20T09:57:57;2.08;;;1.25;;
19151;SDS011;9708;53.114;9.388;2023-08-20T10:00:25;3.20;;;1.30;;
19151;SDS011;9708;53.114;9.388;2023-08-20T10:02:53;4.03;;;1.27;;
19151;SDS011;9708;53.114;9.388;2023-08-20T10:05:21;1.50;;;1.40;;
19151;SDS011;9708;53.114;9.388;2023-08-20T10:07:49;2.03;;;1.73;;
19151;SDS011;9708;53.114;9.388;2023-08-20T10:10:16;1.50;;;1.40;;
19151;SDS011;9708;53.114;9.388;2023-08-20T10:12:44;3.47;;;1.40;;
19151;SDS011;9708;53.114;9.388;2023-08-20T10:15:14;1.85;;;1.33;;
19151;SDS011;9708;53.114;9.388;2023-08-20T10:17:42;1.88;;;1.45;;
19151;SDS011;9708;53.114;9.388;2023-08-20T10:20:12;3.17;;;1.77;;
19151;SDS011;9708;53.114;9.388;2023-08-20T10:22:41;3.10;;;1.35;;
19151;SDS011;9708;53.114;9.388;2023-08-20T10:25:10;1.58;;;1.10;;
19151;SDS011;9708;53.114;9.388;2023-08-20T10:27:38;1.30;;;1.20;;
19151;SDS011;9708;53.114;9.388;2023-08-20T10:30:08;1.50;;;1.40;;
19151;SDS011;9708;53.114;9.388;2023-08-20T10:32:45;4.70;;;1.90;;
19151;SDS011;9708;53.114;9.388;2023-08-20T10:35:13;4.25;;;1.60;;
19151;SDS011;9708;53.114;9.388;2023-08-20T10:43:26;3.15;;;1.55;;
19151;SDS011;9708;53.114;9.388;2023-08-20T10:46:03;2.53;;;1.80;;
19151;SDS011;9708;53.114;9.388;2023-08-20T10:48:47;1.73;;;1.52;;
19151;SDS011;9708;53.114;9.388;2023-08-20T10:51:17;1.40;;;1.30;;
19151;SDS011;9708;53.114;9.388;2023-08-20T10:53:57;2.25;;;1.63;;
19151;SDS011;9708;53.114;9.388;2023-08-20T10:56:39;2.53;;;1.70;;
19151;SDS011;9708;53.114;9.388;2023-08-20T10:59:07;1.70;;;1.60;;
19151;SDS011;9708;53.114;9.388;2023-08-20T11:01:34;2.28;;;1.48;;
19151;SDS011;9708;53.114;9.388;2023-08-20T11:04:03;1.50;;;1.38;;
19151;SDS011;9708;53.114;9.388;2023-08-20T11:06:32;2.05;;;1.60;;
19151;SDS011;9708;53.114;9.388;2023-08-20T11:08:59;1.92;;;1.50;;
19151;SDS011;9708;53.114;9.388;2023-08-20T11:11:28;1.60;;;1.50;;
19151;SDS011;9708;53.114;9.388;2023-08-20T11:13:55;2.63;;;1.77;;
19151;SDS011;9708;53.114;9.388;2023-08-20T11:16:22;21.48;;;11.25;;
19151;SDS011;9708;53.114;9.388;2023-08-20T11:18:48;3.70;;;2.38;;
19151;SDS011;9708;53.114;9.388;2023-08-20T11:21:19;1.70;;;1.60;;
19151;SDS011;9708;53.114;9.388;2023-08-20T11:23:46;3.00;;;1.58;;
19151;SDS011;9708;53.114;9.388;2023-08-20T11:26:13;1.88;;;1.77;;
19151;SDS011;9708;53.114;9.388;2023-08-20T11:28:44;2.22;;;1.60;;
19151;SDS011;9708;53.114;9.388;2023-08-20T11:31:11;4.20;;;1.50;;
19151;SDS011;9708;53.114;9.388;2023-08-20T11:33:38;3.97;;;1.80;;
19151;SDS011;9708;53.114;9.388;2023-08-20T11:36:05;3.22;;;1.65;;
19151;SDS011;9708;53.114;9.388;2023-08-20T11:38:34;1.90;;;1.80;;
19151;SDS011;9708;53.114;9.388;2023-08-20T11:41:01;1.65;;;1.50;;
19151;SDS011;9708;53.114;9.388;2023-08-20T11:43:28;1.40;;;1.30;;
19151;SDS011;9708;53.114;9.388;2023-08-20T11:45:55;3.25;;;2.10;;
19151;SDS011;9708;53.114;9.388;2023-08-20T11:48:22;2.22;;;1.88;;
19151;SDS011;9708;53.114;9.388;2023-08-20T11:50:49;3.40;;;2.25;;
19151;SDS011;9708;53.114;9.388;2023-08-20T11:53:20;2.30;;;2.10;;
19151;SDS011;9708;53.114;9.388;2023-08-20T11:55:49;2.08;;;1.50;;
19151;SDS011;9708;53.114;9.388;2023-08-20T11:58:15;16.02;;;8.27;;
19151;SDS011;9708;53.114;9.388;2023-08-20T12:00:48;4.22;;;2.22;;
19151;SDS011;9708;53.114;9.388;2023-08-20T12:03:17;4.90;;;1.60;;
19151;SDS011;9708;53.114;9.388;2023-08-20T12:05:44;5.07;;;1.83;;
19151;SDS011;9708;53.114;9.388;2023-08-20T12:08:14;2.33;;;1.48;;
19151;SDS011;9708;53.114;9.388;2023-08-20T12:10:42;6.28;;;2.28;;
19151;SDS011;9708;53.114;9.388;2023-08-20T12:13:11;1.63;;;1.50;;
19151;SDS011;9708;53.114;9.388;2023-08-20T12:15:39;2.10;;;1.63;;
19151;SDS011;9708;53.114;9.388;2023-08-20T12:18:08;2.08;;;1.90;;
19151;SDS011;9708;53.114;9.388;2023-08-20T12:20:35;1.70;;;1.60;;
19151;SDS011;9708;53.114;9.388;2023-08-20T12:23:03;3.15;;;1.60;;
19151;SDS011;9708;53.114;9.388;2023-08-20T12:25:32;3.25;;;1.75;;
19151;SDS011;9708;53.114;9.388;2023-08-20T12:28:01;3.03;;;1.60;;
19151;SDS011;9708;53.114;9.388;2023-08-20T12:30:31;4.05;;;1.70;;
19151;SDS011;9708;53.114;9.388;2023-08-20T12:32:59;2.25;;;1.52;;
19151;SDS011;9708;53.114;9.388;2023-08-20T12:35:25;3.45;;;2.15;;
19151;SDS011;9708;53.114;9.388;2023-08-20T12:37:52;1.92;;;1.35;;
19151;SDS011;9708;53.114;9.388;2023-08-20T12:40:19;1.67;;;1.58;;
19151;SDS011;9708;53.114;9.388;2023-08-20T12:42:46;2.00;;;1.80;;
19151;SDS011;9708;53.114;9.388;2023-08-20T12:45:13;2.33;;;1.52;;
19151;SDS011;9708;53.114;9.388;2023-08-20T12:47:41;2.10;;;1.80;;
19151;SDS011;9708;53.114;9.388;2023-08-20T12:50:08;2.03;;;1.88;;
19151;SDS011;9708;53.114;9.388;2023-08-20T12:52:38;1.83;;;1.73;;
19151;SDS011;9708;53.114;9.388;2023-08-20T12:55:05;2.83;;;1.90;;
19151;SDS011;9708;53.114;9.388;2023-08-20T12:57:33;1.55;;;1.45;;
19151;SDS011;9708;53.114;9.388;2023-08-20T13:00:01;2.20;;;1.98;;
19151;SDS011;9708;53.114;9.388;2023-08-20T13:02:32;3.35;;;1.60;;
19151;SDS011;9708;53.114;9.388;2023-08-20T13:05:01;3.78;;;2.20;;
19151;SDS011;9708;53.114;9.388;2023-08-20T13:07:30;1.92;;;1.70;;
19151;SDS011;9708;53.114;9.388;2023-08-20T13:09:57;4.40;;;1.80;;
19151;SDS011;9708;53.114;9.388;2023-08-20T13:12:25;2.45;;;2.05;;
19151;SDS011;9708;53.114;9.388;2023-08-20T13:14:54;3.65;;;2.33;;
19151;SDS011;9708;53.114;9.388;2023-08-20T13:17:21;1.80;;;1.70;;
19151;SDS011;9708;53.114;9.388;2023-08-20T13:19:48;3.28;;;2.10;;
19151;SDS011;9708;53.114;9.388;2023-08-20T13:22:16;4.30;;;1.77;;
19151;SDS011;9708;53.114;9.388;2023-08-20T13:24:43;3.40;;;1.42;;
19151;SDS011;9708;53.114;9.388;2023-08-20T13:27:10;3.03;;;1.52;;
19151;SDS011;9708;53.114;9.388;2023-08-20T13:29:37;3.08;;;1.77;;
19151;SDS011;9708;53.114;9.388;2023-08-20T13:32:04;2.70;;;2.13;;
19151;SDS011;9708;53.114;9.388;2023-08-20T13:34:31;2.83;;;1.80;;
19151;SDS011;9708;53.114;9.388;2023-08-20T13:36:58;2.63;;;2.42;;
19151;SDS011;9708;53.114;9.388;2023-08-20T13:39:26;5.40;;;2.33;;
19151;SDS011;9708;53.114;9.388;2023-08-20T13:41:53;3.30;;;1.80;;
19151;SDS011;9708;53.114;9.388;2023-08-20T13:44:20;1.85;;;1.60;;
19151;SDS011;9708;53.114;9.388;2023-08-20T13:46:46;2.85;;;1.80;;
19151;SDS011;9708;53.114;9.388;2023-08-20T13:49:13;1.73;;;1.63;;
19151;SDS011;9708;53.114;9.388;2023-08-20T13:51:40;3.00;;;1.92;;
19151;SDS011;9708;53.114;9.388;2023-08-20T13:54:07;2.67;;;1.60;;
19151;SDS011;9708;53.114;9.388;2023-08-20T13:56:35;1.80;;;1.70;;
19151;SDS011;9708;53.114;9.388;2023-08-20T13:59:02;2.38;;;1.80;;
19151;SDS011;9708;53.114;9.388;2023-08-20T14:01:29;3.35;;;2.13;;
19151;SDS011;9708;53.114;9.388;2023-08-20T14:03:56;3.28;;;2.38;;
19151;SDS011;9708;53.114;9.388;2023-08-20T14:06:23;2.10;;;1.90;;
19151;SDS011;9708;53.114;9.388;2023-08-20T14:08:50;2.22;;;1.92;;
19151;SDS011;9708;53.114;9.388;2023-08-20T14:11:17;2.17;;;2.03;;
19151;SDS011;9708;53.114;9.388;2023-08-20T14:13:45;2.13;;;1.98;;
19151;SDS011;9708;53.114;9.388;2023-08-20T14:16:13;3.80;;;2.13;;
19151;SDS011;9708;53.114;9.388;2023-08-20T14:18:40;2.65;;;2.20;;
19151;SDS011;9708;53.114;9.388;2023-08-20T14:21:07;2.90;;;2.15;;
19151;SDS011;9708;53.114;9.388;2023-08-20T14:23:33;5.30;;;2.80;;
19151;SDS011;9708;53.114;9.388;2023-08-20T14:26:01;2.83;;;2.33;;
19151;SDS011;9708;53.114;9.388;2023-08-20T14:28:27;2.92;;;2.40;;
19151;SDS011;9708;53.114;9.388;2023-08-20T14:30:55;2.47;;;2.28;;
19151;SDS011;9708;53.114;9.388;2023-08-20T14:33:22;3.30;;;2.03;;
19151;SDS011;9708;53.114;9.388;2023-08-20T14:35:49;6.35;;;2.45;;
19151;SDS011;9708;53.114;9.388;2023-08-20T14:38:16;2.30;;;2.10;;
19151;SDS011;9708;53.114;9.388;2023-08-20T14:40:42;3.00;;;1.65;;
19151;SDS011;9708;53.114;9.388;2023-08-20T14:43:09;1.77;;;1.67;;
19151;SDS011;9708;53.114;9.388;2023-08-20T14:45:36;1.73;;;1.55;;
19151;SDS011;9708;53.114;9.388;2023-08-20T14:48:04;2.45;;;1.70;;
19151;SDS011;9708;53.114;9.388;2023-08-20T14:50:31;4.25;;;2.28;;
19151;SDS011;9708;53.114;9.388;2023-08-20T14:52:58;2.53;;;2.00;;
19151;SDS011;9708;53.114;9.388;2023-08-20T14:55:25;1.98;;;1.80;;
19151;SDS011;9708;53.114;9.388;2023-08-20T14:57:52;3.70;;;2.00;;
19151;SDS011;9708;53.114;9.388;2023-08-20T15:00:19;2.15;;;1.92;;
19151;SDS011;9708;53.114;9.388;2023-08-20T15:02:47;2.83;;;2.08;;
19151;SDS011;9708;53.114;9.388;2023-08-20T15:05:16;2.00;;;1.90;;
19151;SDS011;9708;53.114;9.388;2023-08-20T15:07:43;2.55;;;1.92;;
19151;SDS011;9708;53.114;9.388;2023-08-20T15:10:10;1.63;;;1.52;;